Golden Dolphin — WYZ5247 — position and weather

sailwx.info

Track history (hours):
 
Tides and Currents Weather Stations Pressure Air Temp Water Temp Dewpoint Dewpoint Depression Visibility Wind Speed Wind Dir Waves Ship Positions

Oceanographic research ship Golden Dolphin (USA)

Owner: ROSS LABORATORIES INC, SEATTLE, WA. More information available from US FCC via Universal Licensing System and Coast Guard Vessel Documentation Center.

Last reported at 2017-Dec-04 02:36 UTC. Time now 2017-Dec-13 13:15 UTC.
Position N 47°39' W 122°23'.
Warning: this ship's position is 9 days out of date.

; draft 2.2 m.

Type: Dredging. MMSI: 367117140.

Date/timePositionNaut miles runAvg speedWind from/ knotsBaromVisibWave heightAir tempDewpointWater temp
2017-Dec-04 02:36N 47°39' W 122°23'0 0.1
2017-Dec-04 02:30N 47°39' W 122°23'0 0.0
2017-Dec-04 02:00N 47°39' W 122°23'1 1.9
2017-Dec-04 01:30N 47°39' W 122°21'1 1.3
2017-Dec-04 01:00N 47°39' W 122°21'0 0.9
2017-Dec-04 00:30N 47°39' W 122°20'2 4.1
2017-Dec-03 23:59N 47°39' W 122°17'1 3.1
2017-Dec-03 23:30N 47°39' W 122°19'1 2.2
2017-Dec-03 23:00N 47°39' W 122°21'1 2.9
2017-Dec-03 22:30N 47°40' W 122°22'0 0.5
2017-Dec-03 22:00N 47°39' W 122°23'0 0.0
2017-Dec-03 21:30N 47°39' W 122°23'0 0.0
2017-Dec-03 21:00N 47°39' W 122°23'0 0.0
2017-Dec-03 20:30N 47°39' W 122°23'0 0.0
2017-Dec-03 20:00N 47°39' W 122°23'0 0.1
2017-Dec-03 19:30N 47°39' W 122°23'0 0.1
2017-Dec-03 19:00N 47°39' W 122°23'0 0.0
2017-Dec-03 18:30N 47°39' W 122°23'0 0.0
2017-Dec-03 18:00N 47°39' W 122°23'0 0.0
2017-Dec-03 17:30N 47°39' W 122°23'0 0.0
2017-Dec-03 17:00N 47°39' W 122°23'0 0.0
2017-Dec-03 16:30N 47°39' W 122°23'0 0.0
2017-Dec-03 16:00N 47°39' W 122°23'0 0.0
2017-Dec-03 15:30N 47°39' W 122°23'0 0.0
2017-Dec-03 15:00N 47°39' W 122°23'0 0.0
2017-Dec-03 14:30N 47°39' W 122°23'0 0.0
2017-Dec-03 14:00N 47°39' W 122°23'0 0.0
2017-Dec-03 13:30N 47°39' W 122°23'0 0.0
2017-Dec-03 13:00N 47°39' W 122°23'0 0.0
2017-Dec-03 12:27N 47°39' W 122°23'0 0.0
2017-Dec-03 12:00N 47°39' W 122°23'0 0.0
2017-Dec-03 11:30N 47°39' W 122°23'0 0.0
2017-Dec-03 11:00N 47°39' W 122°23'0 0.0
2017-Dec-03 10:30N 47°39' W 122°23'0 0.0
2017-Dec-03 10:00N 47°39' W 122°23'0 0.0
2017-Dec-03 09:30N 47°39' W 122°23'0 0.0
2017-Dec-03 09:00N 47°39' W 122°23'0 0.0
2017-Dec-03 08:30N 47°39' W 122°23'0 0.0
2017-Dec-03 08:00N 47°39' W 122°23'0 0.0
2017-Dec-03 07:30N 47°39' W 122°23'0 0.0
2017-Dec-03 07:00N 47°39' W 122°23'0 0.0
2017-Dec-03 06:30N 47°39' W 122°23'0 0.0
2017-Dec-03 06:00N 47°39' W 122°23'0 0.0
2017-Dec-03 05:30N 47°39' W 122°23'0 0.0
2017-Dec-03 05:00N 47°39' W 122°23'0 0.0
2017-Dec-03 04:30N 47°39' W 122°23'0 0.0
2017-Dec-03 04:00N 47°39' W 122°23'0 0.0
2017-Dec-03 03:30N 47°39' W 122°23'0 0.1
2017-Dec-03 03:00N 47°39' W 122°23'0 0.1
2017-Dec-03 02:30N 47°39' W 122°23'0 0.0
2017-Dec-03 02:00N 47°39' W 122°23'0 0.0
2017-Dec-03 01:30N 47°39' W 122°23'0 0.0
2017-Dec-03 00:57N 47°39' W 122°23'0 0.0
2017-Dec-03 00:30N 47°39' W 122°23'0 0.0
2017-Dec-03 00:00N 47°39' W 122°23'0 0.0
2017-Dec-02 23:30N 47°39' W 122°23'0 0.0
2017-Dec-02 23:00N 47°39' W 122°23'0 0.0
2017-Dec-02 22:30N 47°39' W 122°23'0 0.0
2017-Dec-02 22:00N 47°39' W 122°23'0 0.0
2017-Dec-02 21:30N 47°39' W 122°23'0 0.0
2017-Dec-02 21:00N 47°39' W 122°23'0 0.0
2017-Dec-02 20:30N 47°39' W 122°23'0 0.0
2017-Dec-02 20:00N 47°39' W 122°23'0 0.0
2017-Dec-02 19:30N 47°39' W 122°23'0 0.0
2017-Dec-02 19:00N 47°39' W 122°23'0 0.0
2017-Dec-02 18:30N 47°39' W 122°23'0 0.0
2017-Dec-02 18:00N 47°39' W 122°23'  
Track history (hours):
 
Tides and Currents Weather Stations Pressure Air Temp Water Temp Dewpoint Dewpoint Depression Visibility Wind Speed Wind Dir Waves Ship Positions

Oceanographic research ship Golden Dolphin (USA)

Owner: ROSS LABORATORIES INC, SEATTLE, WA. More information available from US FCC via Universal Licensing System and Coast Guard Vessel Documentation Center.

Last reported at 2017-Dec-04 02:36 UTC. Time now 2017-Dec-13 13:15 UTC.
Position N 47°39' W 122°23'.
Warning: this ship's position is 9 days out of date.

; draft 2.2 m.

Type: Dredging. MMSI: 367117140.

Date/timePositionNaut miles runAvg speedWind from/ knotsBaromVisibWave heightAir tempDewpointWater temp
2017-Dec-04 02:36N 47°39' W 122°23'0 0.1
2017-Dec-04 02:30N 47°39' W 122°23'0 0.0
2017-Dec-04 02:00N 47°39' W 122°23'1 1.9
2017-Dec-04 01:30N 47°39' W 122°21'1 1.3
2017-Dec-04 01:00N 47°39' W 122°21'0 0.9
2017-Dec-04 00:30N 47°39' W 122°20'2 4.1
2017-Dec-03 23:59N 47°39' W 122°17'1 3.1
2017-Dec-03 23:30N 47°39' W 122°19'1 2.2
2017-Dec-03 23:00N 47°39' W 122°21'1 2.9
2017-Dec-03 22:30N 47°40' W 122°22'0 0.5
2017-Dec-03 22:00N 47°39' W 122°23'0 0.0
2017-Dec-03 21:30N 47°39' W 122°23'0 0.0
2017-Dec-03 21:00N 47°39' W 122°23'0 0.0
2017-Dec-03 20:30N 47°39' W 122°23'0 0.0
2017-Dec-03 20:00N 47°39' W 122°23'0 0.1
2017-Dec-03 19:30N 47°39' W 122°23'0 0.1
2017-Dec-03 19:00N 47°39' W 122°23'0 0.0
2017-Dec-03 18:30N 47°39' W 122°23'0 0.0
2017-Dec-03 18:00N 47°39' W 122°23'0 0.0
2017-Dec-03 17:30N 47°39' W 122°23'0 0.0
2017-Dec-03 17:00N 47°39' W 122°23'0 0.0
2017-Dec-03 16:30N 47°39' W 122°23'0 0.0
2017-Dec-03 16:00N 47°39' W 122°23'0 0.0
2017-Dec-03 15:30N 47°39' W 122°23'0 0.0
2017-Dec-03 15:00N 47°39' W 122°23'0 0.0
2017-Dec-03 14:30N 47°39' W 122°23'0 0.0
2017-Dec-03 14:00N 47°39' W 122°23'0 0.0
2017-Dec-03 13:30N 47°39' W 122°23'0 0.0
2017-Dec-03 13:00N 47°39' W 122°23'0 0.0
2017-Dec-03 12:27N 47°39' W 122°23'0 0.0
2017-Dec-03 12:00N 47°39' W 122°23'0 0.0
2017-Dec-03 11:30N 47°39' W 122°23'0 0.0
2017-Dec-03 11:00N 47°39' W 122°23'0 0.0
2017-Dec-03 10:30N 47°39' W 122°23'0 0.0
2017-Dec-03 10:00N 47°39' W 122°23'0 0.0
2017-Dec-03 09:30N 47°39' W 122°23'0 0.0
2017-Dec-03 09:00N 47°39' W 122°23'0 0.0
2017-Dec-03 08:30N 47°39' W 122°23'0 0.0
2017-Dec-03 08:00N 47°39' W 122°23'0 0.0
2017-Dec-03 07:30N 47°39' W 122°23'0 0.0
2017-Dec-03 07:00N 47°39' W 122°23'0 0.0
2017-Dec-03 06:30N 47°39' W 122°23'0 0.0
2017-Dec-03 06:00N 47°39' W 122°23'0 0.0
2017-Dec-03 05:30N 47°39' W 122°23'0 0.0
2017-Dec-03 05:00N 47°39' W 122°23'0 0.0
2017-Dec-03 04:30N 47°39' W 122°23'0 0.0
2017-Dec-03 04:00N 47°39' W 122°23'0 0.0
2017-Dec-03 03:30N 47°39' W 122°23'0 0.1
2017-Dec-03 03:00N 47°39' W 122°23'0 0.1
2017-Dec-03 02:30N 47°39' W 122°23'0 0.0
2017-Dec-03 02:00N 47°39' W 122°23'0 0.0
2017-Dec-03 01:30N 47°39' W 122°23'0 0.0
2017-Dec-03 00:57N 47°39' W 122°23'0 0.0
2017-Dec-03 00:30N 47°39' W 122°23'0 0.0
2017-Dec-03 00:00N 47°39' W 122°23'0 0.0
2017-Dec-02 23:30N 47°39' W 122°23'0 0.0
2017-Dec-02 23:00N 47°39' W 122°23'0 0.0
2017-Dec-02 22:30N 47°39' W 122°23'0 0.0
2017-Dec-02 22:00N 47°39' W 122°23'0 0.0
2017-Dec-02 21:30N 47°39' W 122°23'0 0.0
2017-Dec-02 21:00N 47°39' W 122°23'0 0.0
2017-Dec-02 20:30N 47°39' W 122°23'0 0.0
2017-Dec-02 20:00N 47°39' W 122°23'0 0.0
2017-Dec-02 19:30N 47°39' W 122°23'0 0.0
2017-Dec-02 19:00N 47°39' W 122°23'0 0.0
2017-Dec-02 18:30N 47°39' W 122°23'0 0.0
2017-Dec-02 18:00N 47°39' W 122°23'  

Dump ship's entire track history